Time;durP1;ratioP1;P1;durP2;ratioP2;P2;SDS_P1;SDS_P2;PMS_P1;PMS_P2;Temp;Humidity;BMP_temperature;BMP_pressure;BME280_temperature;BME280_humidity;BME280_pressure;Samples;Min_cycle;Max_cycle;Signal;HPM_P1;HPM_P2
2022/11/28 00:01:34;;;;;;;48.17;30.92;;;;;;;;;;5116496;28;20092;-67
2022/11/28 00:04:02;;;;;;;50.42;30.25;;;;;;;;;;5116328;28;20096;-67
2022/11/28 00:06:30;;;;;;;46.53;29.77;;;;;;;;;;5098168;28;20040;-67
2022/11/28 00:08:59;;;;;;;48.97;30.48;;;;;;;;;;5116373;28;20114;-66
2022/11/28 00:11:27;;;;;;;48.58;30.08;;;;;;;;;;5098453;28;20094;-67
2022/11/28 00:13:54;;;;;;;46.88;29.08;;;;;;;;;;5116299;28;20077;-66
2022/11/28 00:16:22;;;;;;;51.95;30.77;;;;;;;;;;5116141;28;20079;-67
2022/11/28 00:18:51;;;;;;;49.65;29.83;;;;;;;;;;5116270;28;20109;-67
2022/11/28 00:21:18;;;;;;;48.42;29.63;;;;;;;;;;5116312;28;20117;-68
2022/11/28 00:23:47;;;;;;;52.80;31.63;;;;;;;;;;5116216;28;20370;-67
2022/11/28 00:26:17;;;;;;;48.92;30.23;;;;;;;;;;5115985;28;20485;-67
2022/11/28 00:28:45;;;;;;;49.67;29.92;;;;;;;;;;5116064;28;20076;-67
2022/11/28 00:31:17;;;;;;;50.80;30.23;;;;;;;;;;5116069;28;20059;-67
2022/11/28 00:33:44;;;;;;;46.33;29.77;;;;;;;;;;5115908;28;20408;-67
2022/11/28 00:36:12;;;;;;;46.80;30.05;;;;;;;;;;5115377;28;20040;-67
2022/11/28 00:38:40;;;;;;;48.08;30.45;;;;;;;;;;5115824;28;20426;-66
2022/11/28 00:41:08;;;;;;;52.38;31.67;;;;;;;;;;5115801;28;20546;-67
2022/11/28 00:43:36;;;;;;;50.90;30.83;;;;;;;;;;5115827;28;20063;-67
2022/11/28 00:46:04;;;;;;;49.13;30.08;;;;;;;;;;5097681;28;20385;-67
2022/11/28 00:48:32;;;;;;;50.13;30.73;;;;;;;;;;5115618;28;20046;-67
2022/11/28 00:51:25;;;;;;;51.33;30.70;;;;;;;;;;5115452;28;20036;-67
2022/11/28 00:53:54;;;;;;;49.00;30.02;;;;;;;;;;5112444;28;20132;-67
2022/11/28 00:56:23;;;;;;;49.28;30.42;;;;;;;;;;5115469;28;20048;-67
2022/11/28 00:58:51;;;;;;;49.95;31.10;;;;;;;;;;5115463;28;20047;-67
2022/11/28 01:01:20;;;;;;;51.47;30.88;;;;;;;;;;5115208;28;20496;-67
2022/11/28 01:03:48;;;;;;;49.42;31.23;;;;;;;;;;5114776;28;20032;-67
2022/11/28 01:06:29;;;;;;;53.47;32.28;;;;;;;;;;5115098;28;20055;-67
2022/11/28 01:08:58;;;;;;;51.00;31.67;;;;;;;;;;5115277;28;20063;-67
2022/11/28 01:11:25;;;;;;;48.92;30.55;;;;;;;;;;5115165;28;20554;-67
2022/11/28 01:13:54;;;;;;;50.53;31.30;;;;;;;;;;5115104;28;20041;-67
2022/11/28 01:16:21;;;;;;;51.05;31.33;;;;;;;;;;5114731;28;20082;-67
2022/11/28 01:18:49;;;;;;;53.78;32.63;;;;;;;;;;5115050;28;20512;-66
2022/11/28 01:21:16;;;;;;;52.45;31.40;;;;;;;;;;5114444;28;20575;-67
2022/11/28 01:23:44;;;;;;;52.83;31.92;;;;;;;;;;5114897;28;20071;-67
2022/11/28 01:26:15;;;;;;;52.10;32.28;;;;;;;;;;5114918;28;20035;-67
2022/11/28 01:28:42;;;;;;;55.13;31.65;;;;;;;;;;5114815;28;20527;-67
2022/11/28 01:31:11;;;;;;;52.15;31.48;;;;;;;;;;5114724;28;20085;-67
2022/11/28 01:33:39;;;;;;;55.95;33.30;;;;;;;;;;5114714;28;20079;-67
2022/11/28 01:36:06;;;;;;;53.05;32.13;;;;;;;;;;5114645;28;20130;-66
2022/11/28 01:38:34;;;;;;;54.47;31.85;;;;;;;;;;5114602;28;20489;-66
2022/11/28 01:41:02;;;;;;;55.83;32.67;;;;;;;;;;5096612;28;20059;-67
2022/11/28 01:43:29;;;;;;;51.00;31.52;;;;;;;;;;5114526;28;20493;-67
2022/11/28 01:45:57;;;;;;;48.72;30.05;;;;;;;;;;5114555;28;20040;-67
2022/11/28 01:48:26;;;;;;;51.20;31.15;;;;;;;;;;5096203;28;20054;-67
2022/11/28 01:50:56;;;;;;;50.13;30.58;;;;;;;;;;5114376;28;20031;-67
2022/11/28 01:53:26;;;;;;;49.85;29.55;;;;;;;;;;5114433;28;20104;-67
2022/11/28 01:56:02;;;;;;;50.53;31.05;;;;;;;;;;5114106;28;20486;-67
2022/11/28 01:58:30;;;;;;;46.88;28.67;;;;;;;;;;5114368;28;20040;-67
2022/11/28 02:00:58;;;;;;;49.08;29.42;;;;;;;;;;5096039;28;20039;-67
2022/11/28 02:03:30;;;;;;;51.20;30.83;;;;;;;;;;5114270;28;20114;-67
2022/11/28 02:05:57;;;;;;;54.55;30.73;;;;;;;;;;5095554;28;20043;-67
2022/11/28 02:08:25;;;;;;;47.22;29.40;;;;;;;;;;5114024;28;20100;-67
2022/11/28 02:11:07;;;;;;;53.65;32.25;;;;;;;;;;5114041;28;20043;-67
2022/11/28 02:13:41;;;;;;;50.38;29.77;;;;;;;;;;5113780;28;20067;-67
2022/11/28 02:16:27;;;;;;;54.38;31.35;;;;;;;;;;5094543;28;20046;-67
2022/11/28 02:19:02;;;;;;;50.97;31.85;;;;;;;;;;5095800;28;20541;-67
2022/11/28 02:21:32;;;;;;;53.75;32.05;;;;;;;;;;5113736;28;20152;-67
2022/11/28 02:24:32;;;;;;;56.60;31.73;;;;;;;;;;5006870;27;20445;-67
2022/11/28 02:27:19;;;;;;;51.40;31.25;;;;;;;;;;5006861;28;20042;-67
2022/11/28 02:29:47;;;;;;;55.53;31.85;;;;;;;;;;5006776;28;20046;-67
2022/11/28 02:32:14;;;;;;;49.78;30.85;;;;;;;;;;5005745;28;20039;-67
2022/11/28 02:35:01;;;;;;;57.72;32.58;;;;;;;;;;5006805;28;20510;-67
2022/11/28 02:37:36;;;;;;;48.40;29.92;;;;;;;;;;5005630;28;20590;-67
2022/11/28 02:40:21;;;;;;;55.25;30.77;;;;;;;;;;5007165;28;20627;-66
2022/11/28 02:43:08;;;;;;;53.45;30.85;;;;;;;;;;5006914;28;21028;-67
2022/11/28 02:45:45;;;;;;;50.22;29.60;;;;;;;;;;5006601;28;20113;-66
2022/11/28 02:48:15;;;;;;;52.15;30.77;;;;;;;;;;5006572;28;20043;-67
2022/11/28 02:50:54;;;;;;;54.15;31.00;;;;;;;;;;5006615;28;20125;-67
2022/11/28 02:53:24;;;;;;;54.35;30.38;;;;;;;;;;5006377;28;20054;-67
2022/11/28 02:55:52;;;;;;;51.80;31.10;;;;;;;;;;5005250;28;20042;-67
2022/11/28 02:58:19;;;;;;;48.33;29.95;;;;;;;;;;5008021;28;20067;-67
2022/11/28 03:00:50;;;;;;;50.42;29.73;;;;;;;;;;5005140;28;20400;-67
2022/11/28 03:03:26;;;;;;;52.28;30.60;;;;;;;;;;5006177;28;20050;-67
2022/11/28 03:06:02;;;;;;;49.65;29.10;;;;;;;;;;5006202;28;20042;-67
2022/11/28 03:08:43;;;;;;;46.30;28.80;;;;;;;;;;5006234;28;20053;-67
2022/11/28 03:11:11;;;;;;;51.97;30.55;;;;;;;;;;5006029;28;20038;-67
2022/11/28 03:13:53;;;;;;;52.53;29.77;;;;;;;;;;5004630;28;20049;-67
2022/11/28 03:16:36;;;;;;;51.58;29.92;;;;;;;;;;5004660;28;20050;-67
2022/11/28 03:19:16;;;;;;;54.88;30.80;;;;;;;;;;5005978;28;20476;-67
2022/11/28 03:22:02;;;;;;;50.17;30.77;;;;;;;;;;5006026;28;20042;-67
2022/11/28 03:24:30;;;;;;;50.22;30.25;;;;;;;;;;5005889;28;20046;-67
2022/11/28 03:27:02;;;;;;;54.22;29.92;;;;;;;;;;5006060;28;20508;-67
2022/11/28 03:29:30;;;;;;;48.28;29.45;;;;;;;;;;5005892;28;20046;-67
2022/11/28 03:32:00;;;;;;;48.45;29.92;;;;;;;;;;5005968;28;20042;-67
2022/11/28 03:34:31;;;;;;;47.65;28.45;;;;;;;;;;4998937;28;20039;-67
2022/11/28 03:37:06;;;;;;;49.95;30.08;;;;;;;;;;4992810;28;20077;-67
2022/11/28 03:39:36;;;;;;;49.90;29.67;;;;;;;;;;4992963;28;20050;-67
2022/11/28 03:42:12;;;;;;;52.03;30.17;;;;;;;;;;4992762;28;20053;-67
2022/11/28 03:44:39;;;;;;;;;;;;;;;;;;4993039;28;20125;-67
2022/11/28 03:47:07;;;;;;;54.95;30.50;;;;;;;;;;4992761;28;19925;-67
2022/11/28 03:49:40;;;;;;;50.78;30.02;;;;;;;;;;4991538;28;20410;-67
2022/11/28 03:52:10;;;;;;;48.22;28.35;;;;;;;;;;4992650;28;20495;-67
2022/11/28 03:54:45;;;;;;;49.10;28.88;;;;;;;;;;4991301;28;20074;-67
2022/11/28 03:57:17;;;;;;;47.20;28.45;;;;;;;;;;4991702;28;20441;-67
2022/11/28 03:59:47;;;;;;;50.38;28.50;;;;;;;;;;4992438;28;20060;-67
2022/11/28 04:02:33;;;;;;;50.08;28.50;;;;;;;;;;4992455;28;20046;-67
2022/11/28 04:05:07;;;;;;;50.33;27.85;;;;;;;;;;4992392;28;20057;-67
2022/11/28 04:07:37;;;;;;;49.17;28.25;;;;;;;;;;4992419;28;20441;-67
2022/11/28 04:10:22;;;;;;;51.33;28.10;;;;;;;;;;4992370;28;20556;-67
2022/11/28 04:13:00;;;;;;;46.25;27.35;;;;;;;;;;4992185;28;20539;-67
2022/11/28 04:15:36;;;;;;;43.17;25.77;;;;;;;;;;4992184;28;20506;-67
2022/11/28 04:18:06;;;;;;;44.63;26.42;;;;;;;;;;4992186;28;20423;-67
2022/11/28 04:21:00;;;;;;;47.70;26.73;;;;;;;;;;4992141;28;20039;-67
2022/11/28 04:23:29;;;;;;;46.28;26.17;;;;;;;;;;4992269;28;20054;-67
2022/11/28 04:26:00;;;;;;;45.22;26.00;;;;;;;;;;4990808;28;20054;-66
2022/11/28 04:28:29;;;;;;;49.28;26.15;;;;;;;;;;4990768;28;20041;-67
2022/11/28 04:30:58;;;;;;;47.17;26.23;;;;;;;;;;4991869;28;20095;-67
2022/11/28 04:33:26;;;;;;;45.40;25.10;;;;;;;;;;4974561;28;20469;-67
2022/11/28 04:35:55;;;;;;;49.05;26.77;;;;;;;;;;4991916;28;20488;-67
2022/11/28 04:38:24;;;;;;;46.75;26.40;;;;;;;;;;4990514;28;20103;-67
2022/11/28 04:40:53;;;;;;;46.67;26.33;;;;;;;;;;4991805;28;20519;-67
2022/11/28 04:43:23;;;;;;;49.22;26.33;;;;;;;;;;4991737;28;20095;-67
2022/11/28 04:45:53;;;;;;;50.80;27.55;;;;;;;;;;4990491;28;20047;-67
2022/11/28 04:48:20;;;;;;;47.92;26.73;;;;;;;;;;4990640;28;20081;-67
2022/11/28 04:51:00;;;;;;;46.75;27.65;;;;;;;;;;4991569;28;20047;-73
2022/11/28 04:53:27;;;;;;;50.75;27.33;;;;;;;;;;4991747;28;20129;-73
2022/11/28 04:56:00;;;;;;;47.67;26.63;;;;;;;;;;4991798;28;20103;-74
2022/11/28 04:58:33;;;;;;;50.97;28.52;;;;;;;;;;4991771;28;20045;-73
2022/11/28 05:01:03;;;;;;;51.22;29.02;;;;;;;;;;4991490;28;20035;-74
2022/11/28 05:03:31;;;;;;;52.13;29.33;;;;;;;;;;4991482;28;20438;-74
2022/11/28 05:05:58;;;;;;;53.42;29.35;;;;;;;;;;4991486;28;20492;-73
2022/11/28 05:08:26;;;;;;;52.83;31.15;;;;;;;;;;4990182;28;20046;-67
2022/11/28 05:10:53;;;;;;;56.92;31.55;;;;;;;;;;4990211;28;20034;-73
2022/11/28 05:13:21;;;;;;;56.85;30.52;;;;;;;;;;4991165;28;20042;-73
2022/11/28 05:15:48;;;;;;;53.40;30.10;;;;;;;;;;4991303;28;20450;-73
2022/11/28 05:18:16;;;;;;;59.30;30.98;;;;;;;;;;4991256;28;20492;-73
2022/11/28 05:20:43;;;;;;;61.90;32.50;;;;;;;;;;4991202;28;20046;-73
2022/11/28 05:23:11;;;;;;;60.20;32.72;;;;;;;;;;4991475;28;20438;-74
2022/11/28 05:25:38;;;;;;;55.92;30.20;;;;;;;;;;4990941;28;20050;-74
2022/11/28 05:28:06;;;;;;;53.85;28.60;;;;;;;;;;4990793;28;20049;-72
2022/11/28 05:30:33;;;;;;;56.85;28.98;;;;;;;;;;4990876;28;20054;-72
2022/11/28 05:33:01;;;;;;;60.50;33.05;;;;;;;;;;4990324;28;20039;-72
2022/11/28 05:35:29;;;;;;;69.13;34.67;;;;;;;;;;4990206;28;20046;-72
2022/11/28 05:37:56;;;;;;;58.05;29.90;;;;;;;;;;4990887;28;20039;-72
2022/11/28 05:40:23;;;;;;;58.53;34.88;;;;;;;;;;4991019;28;20565;-73
2022/11/28 05:42:51;;;;;;;60.30;35.30;;;;;;;;;;4990647;28;20038;-73
2022/11/28 05:45:18;;;;;;;54.50;31.00;;;;;;;;;;4990715;28;20047;-72
2022/11/28 05:47:46;;;;;;;51.00;29.10;;;;;;;;;;4993865;28;20074;-74
2022/11/28 05:50:13;;;;;;;56.63;28.35;;;;;;;;;;4988938;28;20042;-72
2022/11/28 05:52:41;;;;;;;49.67;26.52;;;;;;;;;;4988754;28;20060;-73
2022/11/28 05:55:08;;;;;;;50.90;26.27;;;;;;;;;;4988931;28;20038;-72
2022/11/28 05:57:36;;;;;;;44.10;24.27;;;;;;;;;;4988512;28;20389;-73
2022/11/28 06:00:04;;;;;;;44.97;25.15;;;;;;;;;;4989249;28;20042;-72
2022/11/28 06:02:37;;;;;;;45.42;24.30;;;;;;;;;;4990534;28;20125;-72
2022/11/28 06:05:05;;;;;;;47.17;25.10;;;;;;;;;;4990608;28;20053;-72
2022/11/28 06:07:53;;;;;;;41.03;22.60;;;;;;;;;;4990620;28;20472;-73
2022/11/28 06:10:21;;;;;;;44.88;23.75;;;;;;;;;;4990631;28;20042;-72
2022/11/28 06:12:49;;;;;;;42.67;23.05;;;;;;;;;;4990562;28;20092;-72
2022/11/28 06:15:16;;;;;;;44.80;23.20;;;;;;;;;;4990591;28;20091;-72
2022/11/28 06:17:43;;;;;;;40.17;23.27;;;;;;;;;;4990596;28;20480;-72
2022/11/28 06:20:11;;;;;;;42.80;23.25;;;;;;;;;;4990577;28;20046;-72
2022/11/28 06:22:38;;;;;;;38.05;21.05;;;;;;;;;;4990342;28;20050;-72
2022/11/28 06:25:06;;;;;;;35.85;20.98;;;;;;;;;;4990363;28;20125;-72
2022/11/28 06:27:34;;;;;;;35.97;21.13;;;;;;;;;;4990427;28;20042;-72
2022/11/28 06:30:02;;;;;;;50.83;25.55;;;;;;;;;;4989237;28;20042;-72
2022/11/28 06:32:29;;;;;;;43.75;22.15;;;;;;;;;;4989126;28;20395;-72
2022/11/28 06:34:57;;;;;;;69.50;24.40;;;;;;;;;;4990615;28;20038;-72
2022/11/28 06:37:24;;;;;;;58.20;24.33;;;;;;;;;;4990247;28;20063;-72
2022/11/28 06:39:52;;;;;;;45.70;23.42;;;;;;;;;;4989208;28;20035;-72
2022/11/28 06:42:19;;;;;;;37.90;21.75;;;;;;;;;;4988905;28;20042;-72
2022/11/28 06:44:47;;;;;;;36.42;20.50;;;;;;;;;;4989960;28;20055;-73
2022/11/28 06:47:14;;;;;;;39.08;20.75;;;;;;;;;;4990084;28;20127;-72
2022/11/28 06:49:41;;;;;;;38.33;21.15;;;;;;;;;;4990131;28;20046;-72
2022/11/28 06:52:09;;;;;;;40.50;21.30;;;;;;;;;;4990293;28;20122;-72
2022/11/28 06:54:37;;;;;;;34.35;20.45;;;;;;;;;;4989962;28;20046;-73
2022/11/28 06:57:04;;;;;;;36.40;20.17;;;;;;;;;;4988718;28;20458;-72
2022/11/28 06:59:31;;;;;;;35.72;20.60;;;;;;;;;;4990007;28;20297;-73
2022/11/28 07:02:01;;;;;;;41.88;21.88;;;;;;;;;;4989987;28;20045;-72
2022/11/28 07:04:34;;;;;;;34.33;19.38;;;;;;;;;;4989853;28;20047;-72
2022/11/28 07:07:01;;;;;;;32.17;18.55;;;;;;;;;;4989905;28;20042;-72
2022/11/28 07:09:29;;;;;;;37.35;19.92;;;;;;;;;;4991112;28;20050;-72
2022/11/28 07:11:56;;;;;;;62.70;30.73;;;;;;;;;;4991993;28;20405;-71
2022/11/28 07:14:23;;;;;;;41.80;22.20;;;;;;;;;;4993227;28;20449;-72
2022/11/28 07:16:51;;;;;;;38.72;20.35;;;;;;;;;;4991903;28;20042;-72
2022/11/28 07:19:21;;;;;;;40.58;21.73;;;;;;;;;;4993050;28;20121;-72
2022/11/28 07:21:49;;;;;;;51.55;27.10;;;;;;;;;;4991645;28;20046;-72
2022/11/28 07:24:18;;;;;;;35.10;19.58;;;;;;;;;;4992739;28;20518;-72
2022/11/28 07:26:46;;;;;;;29.67;18.92;;;;;;;;;;4991555;28;20483;-72
2022/11/28 07:29:14;;;;;;;38.92;22.88;;;;;;;;;;4992945;28;20046;-72
2022/11/28 07:31:42;;;;;;;88.43;41.25;;;;;;;;;;4992815;28;20065;-72
2022/11/28 07:34:10;;;;;;;32.33;18.13;;;;;;;;;;4991627;28;20038;-72
2022/11/28 07:36:37;;;;;;;30.02;18.38;;;;;;;;;;4992928;28;20078;-72
2022/11/28 07:39:07;;;;;;;32.45;18.52;;;;;;;;;;4992861;28;20042;-72
2022/11/28 07:41:34;;;;;;;30.55;18.17;;;;;;;;;;4992731;28;20054;-72
2022/11/28 07:44:03;;;;;;;25.88;16.35;;;;;;;;;;4992705;28;20042;-72
2022/11/28 07:46:31;;;;;;;37.45;20.48;;;;;;;;;;4991534;28;20043;-72
2022/11/28 07:48:58;;;;;;;35.45;19.73;;;;;;;;;;4992723;28;20038;-73
2022/11/28 07:51:28;;;;;;;40.88;23.13;;;;;;;;;;4992663;28;20050;-72
2022/11/28 07:53:55;;;;;;;34.63;20.42;;;;;;;;;;4992626;28;20046;-72
2022/11/28 07:56:25;;;;;;;34.50;21.00;;;;;;;;;;4992521;28;20050;-72
2022/11/28 07:59:06;;;;;;;37.95;21.10;;;;;;;;;;4992571;28;20113;-72
2022/11/28 08:01:34;;;;;;;34.13;18.48;;;;;;;;;;4992307;28;20053;-72
2022/11/28 08:04:03;;;;;;;29.00;17.38;;;;;;;;;;4991307;28;20437;-73
2022/11/28 08:06:31;;;;;;;31.52;18.02;;;;;;;;;;4992517;28;20038;-72
2022/11/28 08:09:00;;;;;;;29.83;17.25;;;;;;;;;;4992296;28;20454;-73
2022/11/28 08:11:29;;;;;;;33.53;18.55;;;;;;;;;;4992459;28;20453;-73
2022/11/28 08:13:57;;;;;;;27.58;16.58;;;;;;;;;;4992229;28;20050;-72
2022/11/28 08:16:26;;;;;;;28.45;16.73;;;;;;;;;;4992279;28;20049;-72
2022/11/28 08:18:54;;;;;;;27.15;17.30;;;;;;;;;;4992194;28;20046;-73
2022/11/28 08:21:23;;;;;;;25.75;14.57;;;;;;;;;;4992013;28;20462;-72
2022/11/28 08:23:52;;;;;;;26.52;16.20;;;;;;;;;;4991868;28;20504;-72
2022/11/28 08:26:23;;;;;;;25.00;16.33;;;;;;;;;;4992070;28;20050;-72
2022/11/28 08:28:55;;;;;;;31.50;16.77;;;;;;;;;;4990674;28;20069;-72
2022/11/28 08:31:25;;;;;;;34.22;18.67;;;;;;;;;;4991942;28;20043;-73
2022/11/28 08:33:53;;;;;;;30.67;16.73;;;;;;;;;;4991996;28;20557;-73
2022/11/28 08:36:21;;;;;;;32.50;17.83;;;;;;;;;;4992002;28;20495;-73
2022/11/28 08:38:49;;;;;;;34.97;19.13;;;;;;;;;;4991923;28;20052;-74
2022/11/28 08:41:35;;;;;;;34.38;19.48;;;;;;;;;;4991965;28;20043;-74
2022/11/28 08:44:03;;;;;;;33.13;18.42;;;;;;;;;;4991892;28;20385;-73
2022/11/28 08:46:31;;;;;;;34.05;19.23;;;;;;;;;;4991813;28;20072;-73
2022/11/28 08:49:00;;;;;;;34.30;20.05;;;;;;;;;;4991828;28;20446;-73
2022/11/28 08:51:31;;;;;;;32.83;19.00;;;;;;;;;;4991651;28;20041;-73
2022/11/28 08:53:58;;;;;;;38.85;22.50;;;;;;;;;;4991751;28;20038;-73
2022/11/28 08:56:26;;;;;;;33.63;21.02;;;;;;;;;;4991756;28;20043;-73
2022/11/28 08:58:54;;;;;;;36.33;21.08;;;;;;;;;;4991522;28;20092;-73
2022/11/28 09:01:24;;;;;;;36.53;21.42;;;;;;;;;;4991657;28;20070;-73
2022/11/28 09:03:53;;;;;;;37.30;21.08;;;;;;;;;;4991459;28;20475;-74
2022/11/28 09:06:21;;;;;;;47.78;26.42;;;;;;;;;;4991631;28;20052;-74
2022/11/28 09:08:49;;;;;;;42.38;24.17;;;;;;;;;;4991523;28;20480;-73
2022/11/28 09:11:17;;;;;;;41.80;24.85;;;;;;;;;;4991773;28;20046;-74
2022/11/28 09:13:45;;;;;;;47.05;24.98;;;;;;;;;;4991621;28;20042;-74
2022/11/28 09:16:13;;;;;;;46.97;24.52;;;;;;;;;;4990303;28;20047;-73
2022/11/28 09:18:41;;;;;;;62.58;32.22;;;;;;;;;;4990143;28;20042;-74
2022/11/28 09:21:10;;;;;;;41.88;23.25;;;;;;;;;;4991274;28;20510;-73
2022/11/28 09:23:39;;;;;;;40.85;24.08;;;;;;;;;;4991136;28;20055;-74
2022/11/28 09:26:10;;;;;;;46.85;24.70;;;;;;;;;;4991282;28;20042;-73
2022/11/28 09:28:38;;;;;;;43.85;22.95;;;;;;;;;;4991148;28;20519;-74
2022/11/28 09:31:06;;;;;;;39.20;21.05;;;;;;;;;;4991249;28;20054;-74
2022/11/28 09:33:34;;;;;;;44.75;24.05;;;;;;;;;;4990628;28;20065;-74
2022/11/28 09:36:06;;;;;;;42.20;23.98;;;;;;;;;;4991238;28;20038;-74
2022/11/28 09:38:34;;;;;;;28.85;16.08;;;;;;;;;;4990989;28;20487;-75
2022/11/28 09:41:02;;;;;;;39.55;20.83;;;;;;;;;;4991038;28;20038;-73
2022/11/28 09:43:32;;;;;;;46.88;23.63;;;;;;;;;;4991147;28;20487;-74
2022/11/28 09:46:01;;;;;;;32.80;19.10;;;;;;;;;;4990739;28;20507;-74
2022/11/28 09:48:33;;;;;;;31.35;15.98;;;;;;;;;;4990847;28;20045;-73
2022/11/28 09:51:04;;;;;;;37.25;20.58;;;;;;;;;;4989673;28;20412;-74
2022/11/28 09:53:32;;;;;;;40.33;20.65;;;;;;;;;;4990869;28;20038;-74
2022/11/28 09:56:02;;;;;;;33.75;17.10;;;;;;;;;;4990704;28;20046;-73
2022/11/28 09:58:33;;;;;;;30.90;17.15;;;;;;;;;;4990811;28;20484;-74
2022/11/28 10:01:04;;;;;;;32.45;17.45;;;;;;;;;;4990799;28;20062;-74
2022/11/28 10:03:37;;;;;;;46.78;21.77;;;;;;;;;;4990758;28;20484;-74
2022/11/28 10:06:05;;;;;;;36.63;19.77;;;;;;;;;;4990849;28;20088;-73
2022/11/28 10:08:50;;;;;;;34.05;19.77;;;;;;;;;;4990601;28;20038;-73
2022/11/28 10:11:21;;;;;;;38.83;20.00;;;;;;;;;;4989718;28;20146;-73
2022/11/28 10:14:18;;;;;;;43.35;22.35;;;;;;;;;;4990475;28;20046;-73
2022/11/28 10:17:03;;;;;;;42.38;22.05;;;;;;;;;;4993524;28;20076;-73
2022/11/28 10:19:49;;;;;;;35.83;20.90;;;;;;;;;;4990445;28;20564;-73
2022/11/28 10:22:45;;;;;;;38.08;21.30;;;;;;;;;;4990228;28;20050;-74
2022/11/28 10:25:21;;;;;;;36.25;20.80;;;;;;;;;;4990368;28;20047;-74
2022/11/28 10:27:49;;;;;;;44.85;24.55;;;;;;;;;;4990366;28;20047;-75
2022/11/28 10:30:22;;;;;;;36.72;21.58;;;;;;;;;;4990323;28;20237;-73
2022/11/28 10:32:55;;;;;;;36.72;20.55;;;;;;;;;;4990320;28;20121;-74
2022/11/28 10:35:44;;;;;;;35.25;20.50;;;;;;;;;;4989178;28;20045;-74
2022/11/28 10:38:15;;;;;;;40.85;19.80;;;;;;;;;;4990345;28;20565;-74
2022/11/28 10:40:49;;;;;;;34.55;20.42;;;;;;;;;;4990315;28;20625;-74
2022/11/28 10:43:20;;;;;;;34.80;20.48;;;;;;;;;;4990230;28;20041;-74
2022/11/28 10:45:53;;;;;;;35.92;20.42;;;;;;;;;;4993187;28;20251;-74
2022/11/28 10:48:24;;;;;;;30.75;18.17;;;;;;;;;;4993694;28;20066;-74
2022/11/28 10:51:10;;;;;;;28.80;16.15;;;;;;;;;;4993704;28;20121;-73
2022/11/28 10:53:41;;;;;;;33.53;18.88;;;;;;;;;;4993607;28;20035;-74
2022/11/28 10:56:17;;;;;;;34.38;19.08;;;;;;;;;;4993534;28;20037;-75
2022/11/28 10:59:08;;;;;;;43.45;21.00;;;;;;;;;;4993423;28;20038;-75
2022/11/28 11:01:37;;;;;;;30.67;19.15;;;;;;;;;;4997689;28;20047;-72
2022/11/28 11:04:05;;;;;;;35.95;18.85;;;;;;;;;;4992075;28;20047;-72
2022/11/28 11:06:33;;;;;;;35.45;20.58;;;;;;;;;;4993115;28;20046;-73
2022/11/28 11:09:20;;;;;;;32.70;18.65;;;;;;;;;;4991986;28;20096;-73
2022/11/28 11:11:54;;;;;;;45.08;20.08;;;;;;;;;;4992959;28;20162;-73
2022/11/28 11:14:33;;;;;;;29.10;16.92;;;;;;;;;;4993049;28;20066;-74
2022/11/28 11:17:01;;;;;;;31.13;20.10;;;;;;;;;;4993085;28;20450;-73
2022/11/28 11:19:31;;;;;;;32.05;18.15;;;;;;;;;;4993214;28;20047;-72
2022/11/28 11:22:01;;;;;;;30.67;19.10;;;;;;;;;;4992972;28;20468;-73
2022/11/28 11:24:28;;;;;;;33.25;19.50;;;;;;;;;;4992961;28;20046;-74
2022/11/28 11:27:02;;;;;;;31.80;18.60;;;;;;;;;;4993039;28;20046;-74
2022/11/28 11:29:34;;;;;;;34.83;20.98;;;;;;;;;;4992877;28;20042;-74
2022/11/28 11:32:04;;;;;;;34.03;19.05;;;;;;;;;;4991704;28;20496;-73
2022/11/28 11:34:36;;;;;;;31.92;19.02;;;;;;;;;;4992950;28;20042;-75
2022/11/28 11:37:22;;;;;;;31.95;19.45;;;;;;;;;;4992874;28;20039;-74
2022/11/28 11:39:52;;;;;;;31.25;19.70;;;;;;;;;;4992895;28;20042;-73
2022/11/28 11:42:21;;;;;;;31.10;18.60;;;;;;;;;;4992784;28;20113;-74
2022/11/28 11:44:49;;;;;;;36.67;20.75;;;;;;;;;;4992696;28;20031;-74
2022/11/28 11:47:17;;;;;;;34.53;21.02;;;;;;;;;;4992722;28;20455;-73
2022/11/28 11:49:47;;;;;;;32.72;17.65;;;;;;;;;;4992903;28;20430;-74
2022/11/28 11:52:22;;;;;;;34.40;19.83;;;;;;;;;;4991603;28;20503;-73
2022/11/28 11:54:55;;;;;;;61.53;30.33;;;;;;;;;;4992279;28;20038;-74
2022/11/28 11:57:24;;;;;;;44.53;23.67;;;;;;;;;;4992696;28;20047;-74
2022/11/28 12:00:05;;;;;;;48.65;24.77;;;;;;;;;;4992650;28;20049;-74
2022/11/28 12:02:41;;;;;;;32.08;19.83;;;;;;;;;;4992886;28;20046;-74
2022/11/28 12:05:21;;;;;;;36.03;20.92;;;;;;;;;;4992473;28;20042;-74
2022/11/28 12:07:58;;;;;;;31.83;19.17;;;;;;;;;;4991294;28;20072;-74
2022/11/28 12:10:27;;;;;;;32.45;18.90;;;;;;;;;;4991096;28;20412;-74
2022/11/28 12:12:54;;;;;;;34.45;20.40;;;;;;;;;;4991072;28;20042;-75
2022/11/28 12:15:38;;;;;;;35.35;19.50;;;;;;;;;;4992352;28;20043;-75
2022/11/28 12:18:11;;;;;;;28.98;18.85;;;;;;;;;;4992370;28;20034;-74
2022/11/28 12:20:39;;;;;;;27.25;17.95;;;;;;;;;;4992235;28;20057;-75
2022/11/28 12:23:06;;;;;;;30.27;17.73;;;;;;;;;;4992035;28;20055;-75
2022/11/28 12:25:54;;;;;;;30.15;17.77;;;;;;;;;;4992029;28;20047;-74
2022/11/28 12:28:40;;;;;;;28.85;17.52;;;;;;;;;;4992341;28;20053;-75
2022/11/28 12:31:07;;;;;;;26.67;17.20;;;;;;;;;;4992130;28;20050;-75
2022/11/28 12:33:52;;;;;;;28.17;15.98;;;;;;;;;;4992047;28;20065;-74
2022/11/28 12:36:37;;;;;;;29.92;17.98;;;;;;;;;;4991987;28;20049;-75
2022/11/28 12:39:05;;;;;;;33.50;18.90;;;;;;;;;;4991988;28;20049;-74
2022/11/28 12:41:39;;;;;;;32.97;19.27;;;;;;;;;;4992178;28;20357;-74
2022/11/28 12:44:13;;;;;;;32.83;19.20;;;;;;;;;;4992074;28;20043;-74
2022/11/28 12:46:49;;;;;;;26.55;16.60;;;;;;;;;;4991706;28;20041;-73
2022/11/28 12:49:19;;;;;;;27.48;17.58;;;;;;;;;;4991853;28;20076;-74
2022/11/28 12:52:05;;;;;;;31.77;19.63;;;;;;;;;;4991748;28;20050;-75
2022/11/28 12:54:51;;;;;;;27.65;17.00;;;;;;;;;;4991696;28;20066;-74
2022/11/28 12:57:41;;;;;;;26.52;16.55;;;;;;;;;;4991584;28;20522;-74
2022/11/28 13:00:09;;;;;;;28.75;17.00;;;;;;;;;;4991872;28;20074;-74
2022/11/28 13:02:55;;;;;;;31.65;18.40;;;;;;;;;;4991667;28;20035;-75
2022/11/28 13:05:29;;;;;;;26.85;17.02;;;;;;;;;;4991505;28;20034;-74
2022/11/28 13:08:15;;;;;;;31.60;18.15;;;;;;;;;;4990416;28;20053;-75
2022/11/28 13:10:58;;;;;;;35.25;19.75;;;;;;;;;;4991341;28;20472;-75
2022/11/28 13:13:34;;;;;;;26.67;16.83;;;;;;;;;;4991304;28;20042;-74
2022/11/28 13:16:22;;;;;;;29.48;17.27;;;;;;;;;;4991331;28;20046;-74
2022/11/28 13:19:16;;;;;;;33.97;19.35;;;;;;;;;;4991294;28;20047;-74
2022/11/28 13:22:05;;;;;;;32.38;17.30;;;;;;;;;;4991384;28;20046;-74
2022/11/28 13:24:42;;;;;;;35.33;19.92;;;;;;;;;;4991568;28;20111;-74
2022/11/28 13:27:32;;;;;;;30.38;17.63;;;;;;;;;;4991258;28;20057;-74
2022/11/28 13:30:31;;;;;;;29.95;16.85;;;;;;;;;;4991178;28;20074;-74
2022/11/28 13:32:59;;;;;;;32.58;17.70;;;;;;;;;;5012381;28;20074;-74
2022/11/28 13:35:27;;;;;;;38.17;18.05;;;;;;;;;;4991221;28;20038;-75
2022/11/28 13:38:00;;;;;;;48.97;23.20;;;;;;;;;;4989944;28;20053;-75
2022/11/28 13:40:53;;;;;;;44.85;23.52;;;;;;;;;;4990998;28;20035;-74
2022/11/28 13:43:40;;;;;;;29.80;18.33;;;;;;;;;;4991061;28;20081;-74
2022/11/28 13:46:08;;;;;;;31.25;17.67;;;;;;;;;;4990969;28;20060;-75
2022/11/28 13:48:36;;;;;;;52.05;25.75;;;;;;;;;;4991067;28;20034;-74
2022/11/28 13:51:25;;;;;;;31.13;16.92;;;;;;;;;;4990831;28;20042;-74
2022/11/28 13:54:17;;;;;;;27.17;16.48;;;;;;;;;;4989601;28;20046;-74
2022/11/28 13:57:02;;;;;;;28.40;17.55;;;;;;;;;;4990917;28;20054;-74
2022/11/28 13:59:30;;;;;;;34.08;19.60;;;;;;;;;;4990725;28;20192;-75
2022/11/28 14:02:00;;;;;;;29.30;17.83;;;;;;;;;;4991278;28;20414;-75
2022/11/28 14:04:28;;;;;;;39.20;22.38;;;;;;;;;;4989528;28;20111;-75
2022/11/28 14:07:03;;;;;;;39.63;22.13;;;;;;;;;;4990579;28;20064;-75
2022/11/28 14:09:51;;;;;;;32.78;18.75;;;;;;;;;;4989396;28;20085;-75
2022/11/28 14:12:21;;;;;;;33.20;19.33;;;;;;;;;;5010111;28;20062;-75
2022/11/28 14:14:49;;;;;;;37.33;20.45;;;;;;;;;;4989236;28;20408;-75
2022/11/28 14:17:35;;;;;;;39.72;22.42;;;;;;;;;;4990635;28;20068;-75
2022/11/28 14:20:08;;;;;;;31.88;18.85;;;;;;;;;;4989005;28;20047;-75
2022/11/28 14:22:52;;;;;;;35.65;19.00;;;;;;;;;;4988917;28;20047;-75
2022/11/28 14:25:33;;;;;;;31.52;18.27;;;;;;;;;;4990208;28;20246;-75
2022/11/28 14:28:03;;;;;;;30.65;17.20;;;;;;;;;;4988942;28;20081;-75
2022/11/28 14:30:33;;;;;;;36.00;19.00;;;;;;;;;;4990257;28;20035;-75
2022/11/28 14:33:22;;;;;;;34.78;19.17;;;;;;;;;;4989000;28;20054;-75
2022/11/28 14:35:50;;;;;;;33.70;18.42;;;;;;;;;;4988893;28;20058;-75
2022/11/28 14:38:30;;;;;;;35.30;18.92;;;;;;;;;;4990183;28;20087;-75
2022/11/28 14:41:02;;;;;;;34.15;17.67;;;;;;;;;;4988951;28;20095;-75
2022/11/28 14:43:51;;;;;;;43.63;25.13;;;;;;;;;;4988929;28;20035;-75
2022/11/28 14:46:19;;;;;;;36.55;19.65;;;;;;;;;;4990222;28;20133;-77
2022/11/28 14:48:59;;;;;;;33.67;19.02;;;;;;;;;;4993896;28;20038;-73